Jonathan, Idaho
Current Conditions -  °F | °C
As of 6:53 AM on Thursday 27 Nov 2014 (Local Time) from KONO Reporting Station
Overcast Overcast  
Wind Chill: 38°   Ceiling: 12000
Heat Index: 38°   Visibility: 8mi
Dew Point: 36°   Wind: 3mph
Humidity: 93%   Direction: 120°ESE
Pressure: 30.15"   Gusts: NA
Location:  44.398°N, 116.943°W
Report Text: KONO 271353Z AUTO 12003KT 8SM SCT100 OVC120 03/02 A3015 RMK AO2 SLP223 T00330022
Loading
Personal Weather Stations






























Interactive Weather Map New forecast layout! Learn more

10-Day Weather Forecast

Advertisements
Track Severe Weather on mobile